Time;durP1;ratioP1;P1;durP2;ratioP2;P2;SDS_P1;SDS_P2;PMS_P1;PMS_P2;Temp;Humidity;BMP_temperature;BMP_pressure;BME280_temperature;BME280_humidity;BME280_pressure;Samples;Min_cycle;Max_cycle;Signal;HPM_P1;HPM_P2
2022/12/20 00:00:14;;;;;;;;;;;7.30;99.90;;;;;;5085925;28;19999;-69
2022/12/20 00:02:40;;;;;;;;;;;7.30;99.90;;;;;;5086689;28;19938;-69
2022/12/20 00:05:05;;;;;;;;;;;7.40;99.90;;;;;;5086191;28;19935;-70
2022/12/20 00:07:31;;;;;;;;;;;7.40;99.90;;;;;;5086610;28;19912;-70
2022/12/20 00:09:57;;;;;;;;;;;7.40;99.90;;;;;;5087576;28;20273;-70
2022/12/20 00:12:22;;;;;;;;;;;7.40;99.90;;;;;;5086345;28;19922;-70
2022/12/20 00:14:48;;;;;;;;;;;7.40;99.90;;;;;;5086486;28;20295;-70
2022/12/20 00:17:13;;;;;;;;;;;7.40;99.90;;;;;;5086565;28;19919;-70
2022/12/20 00:19:39;;;;;;;;;;;7.40;99.90;;;;;;5067915;28;19948;-70
2022/12/20 00:22:04;;;;;;;;;;;7.40;99.90;;;;;;5068453;28;19918;-70
2022/12/20 00:24:31;;;;;;;;;;;7.50;99.90;;;;;;5086523;28;20633;-70
2022/12/20 00:26:57;;;;;;;;;;;7.40;99.90;;;;;;5081833;28;19966;-70
2022/12/20 00:29:22;;;;;;;;;;;7.40;99.90;;;;;;5084072;28;19912;-70
2022/12/20 00:31:48;;;;;;;;;;;7.40;99.90;;;;;;5087219;28;19916;-70
2022/12/20 00:34:13;;;;;;;;;;;7.50;99.90;;;;;;5089387;28;19997;-70
2022/12/20 00:36:39;;;;;;;;;;;7.40;99.90;;;;;;5089626;28;19943;-69
2022/12/20 00:39:04;;;;;;;;;;;7.50;99.90;;;;;;5071942;28;19908;-70
2022/12/20 00:41:31;;;;;;;;;;;7.50;99.90;;;;;;5089809;28;19912;-69
2022/12/20 00:43:56;;;;;;;;;;;7.50;99.90;;;;;;5096104;28;19916;-70
2022/12/20 00:46:23;;;;;;;;;;;7.50;99.90;;;;;;5072046;28;19916;-70
2022/12/20 00:48:49;;;;;;;;;;;7.50;99.90;;;;;;5071406;28;19916;-70
2022/12/20 00:51:17;;;;;;;;;;;7.50;99.90;;;;;;5089720;28;20659;-70
2022/12/20 00:53:43;;;;;;;;;;;7.50;99.90;;;;;;5084178;28;19998;-70
2022/12/20 00:56:08;;;;;;;;;;;7.50;99.90;;;;;;5089816;28;19919;-70
2022/12/20 00:58:35;;;;;;;;;;;7.50;99.90;;;;;;5090547;28;19908;-70
2022/12/20 01:01:00;;;;;;;;;;;7.50;99.90;;;;;;5089516;28;19912;-70
2022/12/20 01:03:26;;;;;;;;;;;7.50;99.90;;;;;;5089424;28;19912;-70
2022/12/20 01:05:52;;;;;;;;;;;7.50;99.90;;;;;;5071090;28;19919;-70
2022/12/20 01:08:18;;;;;;;;;;;7.50;99.90;;;;;;5089628;28;20709;-70
2022/12/20 01:10:44;;;;;;;;;;;7.50;99.90;;;;;;5089110;28;19913;-70
2022/12/20 01:13:09;;;;;;;;;;;7.50;99.90;;;;;;5071380;28;19969;-70
2022/12/20 01:15:35;;;;;;;;;;;7.50;99.90;;;;;;5094271;28;20018;-70
2022/12/20 01:18:01;;;;;;;;;;;7.50;99.90;;;;;;5109521;28;19908;-70
2022/12/20 01:20:26;;;;;;;;;;;7.50;99.90;;;;;;5109580;28;19918;-70
2022/12/20 01:22:52;;;;;;;;;;;7.50;99.90;;;;;;5109718;28;20384;-70
2022/12/20 01:25:17;;;;;;;;;;;7.60;99.90;;;;;;5105479;28;19911;-70
2022/12/20 01:27:43;;;;;;;;;;;7.60;99.90;;;;;;5084026;28;19939;-70
2022/12/20 01:30:08;;;;;;;;;;;7.60;99.90;;;;;;5068630;28;19913;-70
2022/12/20 01:32:34;;;;;;;;;;;7.60;99.90;;;;;;5088933;28;19958;-69
2022/12/20 01:34:59;;;;;;;;;;;7.60;99.90;;;;;;5108594;28;19922;-70
2022/12/20 01:37:25;;;;;;;;;;;7.60;99.90;;;;;;5109595;28;19918;-70
2022/12/20 01:39:50;;;;;;;;;;;7.60;99.90;;;;;;5109117;28;19991;-70
2022/12/20 01:42:16;;;;;;;;;;;7.70;99.90;;;;;;5077685;28;19944;-70
2022/12/20 01:44:41;;;;;;;;;;;7.70;99.90;;;;;;5082637;28;19916;-70
2022/12/20 01:47:07;;;;;;;;;;;7.70;99.90;;;;;;5070573;28;20529;-70
2022/12/20 01:49:34;;;;;;;;;;;7.70;99.90;;;;;;5088833;28;19916;-70
2022/12/20 01:52:05;;;;;;;;;;;7.70;99.90;;;;;;5088856;28;20439;-70
2022/12/20 01:54:31;;;;;;;;;;;7.70;99.90;;;;;;5083238;28;19912;-70
2022/12/20 01:56:58;;;;;;;;;;;7.70;99.90;;;;;;5072897;28;19919;-70
2022/12/20 01:59:24;;;;;;;;;;;7.70;99.90;;;;;;5088129;28;19919;-70
2022/12/20 02:01:50;;;;;;;;;;;7.70;99.90;;;;;;5070249;28;19912;-70
2022/12/20 02:04:15;;;;;;;;;;;7.70;99.90;;;;;;5088346;28;20384;-70
2022/12/20 02:06:41;;;;;;;;;;;7.70;99.90;;;;;;5089679;28;20375;-70
2022/12/20 02:09:07;;;;;;;;;;;7.70;99.90;;;;;;5088565;28;19966;-70
2022/12/20 02:11:33;;;;;;;;;;;7.70;99.90;;;;;;5087905;28;20418;-69
2022/12/20 02:13:58;;;;;;;;;;;7.70;99.90;;;;;;5088066;28;19924;-70
2022/12/20 02:16:26;;;;;;;;;;;7.70;99.90;;;;;;5088072;28;19926;-70
2022/12/20 02:19:08;;;;;;;;;;;7.70;99.90;;;;;;5088136;28;19912;-70
2022/12/20 02:21:54;;;;;;;;;;;7.70;99.90;;;;;;5089030;28;19919;-70
2022/12/20 02:24:19;;;;;;;;;;;7.70;99.90;;;;;;5067929;28;19912;-70
2022/12/20 02:27:14;;;;;;;;;;;7.70;99.90;;;;;;5072035;28;19923;-70
2022/12/20 02:29:52;;;;;;;;;;;7.70;99.90;;;;;;5053902;28;19916;-70
2022/12/20 02:32:23;;;;;;;;;;;7.70;99.90;;;;;;5073346;28;19912;-70
2022/12/20 02:34:49;;;;;;;;;;;7.70;99.90;;;;;;5087860;28;20026;-70
2022/12/20 02:37:14;;;;;;;;;;;7.70;99.90;;;;;;5087944;28;19912;-70
2022/12/20 02:39:41;;;;;;;;;;;7.70;99.90;;;;;;5070245;28;20459;-70
2022/12/20 02:42:08;;;;;;;;;;;7.70;99.90;;;;;;5069184;28;19919;-71
2022/12/20 02:47:23;;;;;;;;;;;7.70;99.90;;;;;;5087490;28;19919;-70
2022/12/20 02:49:49;;;;;;;;;;;7.70;99.90;;;;;;5087001;28;20438;-70
2022/12/20 02:52:16;;;;;;;;;;;7.70;99.90;;;;;;5087336;28;20604;-71
2022/12/20 02:54:42;;;;;;;;;;;7.60;99.90;;;;;;5082896;28;20315;-70
2022/12/20 02:57:15;;;;;;;;;;;7.60;99.90;;;;;;5087022;28;19912;-70
2022/12/20 02:59:44;;;;;;;;;;;7.70;99.90;;;;;;5087024;28;19922;-70
2022/12/20 03:02:09;;;;;;;;;;;7.60;99.90;;;;;;5087730;28;19908;-70
2022/12/20 03:04:37;;;;;;;;;;;7.70;99.90;;;;;;5087365;28;19952;-70
2022/12/20 03:07:02;;;;;;;;;;;7.60;99.90;;;;;;5087445;28;20031;-70
2022/12/20 03:09:32;;;;;;;;;;;7.60;99.90;;;;;;5087272;28;20019;-70
2022/12/20 03:11:57;;;;;;;;;;;7.60;99.90;;;;;;5088172;28;20651;-71
2022/12/20 03:14:23;;;;;;;;;;;7.60;99.90;;;;;;5086863;28;19923;-70
2022/12/20 03:16:49;;;;;;;;;;;7.60;99.90;;;;;;5086815;28;19916;-70
2022/12/20 03:19:15;;;;;;;;;;;7.60;99.90;;;;;;5086588;28;19909;-70
2022/12/20 03:21:41;;;;;;;;;;;7.70;99.90;;;;;;5068977;28;19916;-70
2022/12/20 03:24:06;;;;;;;;;;;7.60;99.90;;;;;;5087461;28;19935;-69
2022/12/20 03:26:32;;;;;;;;;;;7.60;99.90;;;;;;5086617;28;19955;-70
2022/12/20 03:28:57;;;;;;;;;;;7.60;99.90;;;;;;5080368;28;19951;-70
2022/12/20 03:31:23;;;;;;;;;;;7.70;99.90;;;;;;5087283;28;19912;-70
2022/12/20 03:33:48;;;;;;;;;;;7.60;99.90;;;;;;5086926;28;19916;-70
2022/12/20 03:36:14;;;;;;;;;;;7.60;99.90;;;;;;5087065;28;19908;-70
2022/12/20 03:38:39;;;;;;;;;;;7.60;99.90;;;;;;5087109;28;20002;-70
2022/12/20 03:41:05;;;;;;;;;;;7.60;99.90;;;;;;5086195;28;20551;-70
2022/12/20 03:43:30;;;;;;;;;;;7.60;99.90;;;;;;5068736;28;19912;-70
2022/12/20 03:45:56;;;;;;;;;;;7.50;99.90;;;;;;5087805;28;19981;-70
2022/12/20 03:48:21;;;;;;;;;;;7.50;99.90;;;;;;5086981;28;19912;-69
2022/12/20 03:50:46;;;;;;;;;;;7.50;99.90;;;;;;5086638;28;20010;-70
2022/12/20 03:53:12;;;;;;;;;;;7.50;99.90;;;;;;5081473;28;19924;-70
2022/12/20 03:55:37;;;;;;;;;;;7.50;99.90;;;;;;5086550;28;19955;-70
2022/12/20 03:58:03;;;;;;;;;;;7.50;99.90;;;;;;5086805;28;19912;-70
2022/12/20 04:00:28;;;;;;;;;;;7.50;99.90;;;;;;5086477;28;19916;-70
2022/12/20 04:02:54;;;;;;;;;;;7.50;99.90;;;;;;5087795;28;19999;-70
2022/12/20 04:05:20;;;;;;;;;;;7.50;99.90;;;;;;5086509;28;19943;-70
2022/12/20 04:07:45;;;;;;;;;;;7.50;99.90;;;;;;5089392;28;19916;-70
2022/12/20 04:10:11;;;;;;;;;;;7.50;99.90;;;;;;5090447;28;19957;-69
2022/12/20 04:12:36;;;;;;;;;;;7.50;99.90;;;;;;5090747;28;19919;-70
2022/12/20 04:15:02;;;;;;;;;;;7.50;99.90;;;;;;5090346;28;19916;-70
2022/12/20 04:17:27;;;;;;;;;;;7.50;99.90;;;;;;5090475;28;19917;-70
2022/12/20 04:19:53;;;;;;;;;;;7.40;99.90;;;;;;5091176;28;19916;-70
2022/12/20 04:22:18;;;;;;;;;;;7.40;99.90;;;;;;5090327;28;19916;-70
2022/12/20 04:24:44;;;;;;;;;;;7.40;99.90;;;;;;5090504;28;19912;-70
2022/12/20 04:27:09;;;;;;;;;;;7.50;99.90;;;;;;5083021;28;20689;-70
2022/12/20 04:29:35;;;;;;;;;;;7.50;99.90;;;;;;5089781;28;19912;-70
2022/12/20 04:32:00;;;;;;;;;;;7.50;99.90;;;;;;5090176;28;20008;-70
2022/12/20 04:34:26;;;;;;;;;;;7.40;99.90;;;;;;5090692;28;19934;-70
2022/12/20 04:36:51;;;;;;;;;;;7.40;99.90;;;;;;5090918;28;19959;-70
2022/12/20 04:39:17;;;;;;;;;;;7.40;99.90;;;;;;5100044;28;19916;-70
2022/12/20 04:41:42;;;;;;;;;;;7.50;99.90;;;;;;5094274;28;19926;-70
2022/12/20 04:44:08;;;;;;;;;;;7.40;99.90;;;;;;5085439;28;19916;-70
2022/12/20 04:46:33;;;;;;;;;;;7.40;99.90;;;;;;5089890;28;20015;-70
2022/12/20 04:48:59;;;;;;;;;;;7.40;99.90;;;;;;5088383;28;19954;-70
2022/12/20 04:51:24;;;;;;;;;;;7.40;99.90;;;;;;5089608;28;19919;-70
2022/12/20 04:53:50;;;;;;;;;;;7.40;99.90;;;;;;5087730;28;20023;-70
2022/12/20 04:56:17;;;;;;;;;;;7.40;99.90;;;;;;5089500;28;20529;-70
2022/12/20 04:58:42;;;;;;;;;;;7.40;99.90;;;;;;5069034;28;19913;-70
2022/12/20 05:01:08;;;;;;;;;;;7.40;99.90;;;;;;5051468;28;19990;-70
2022/12/20 05:03:33;;;;;;;;;;;7.40;99.90;;;;;;5080777;28;19927;-70
2022/12/20 05:05:59;;;;;;;;;;;7.40;99.90;;;;;;5080236;28;19919;-70
2022/12/20 05:08:24;;;;;;;;;;;7.40;99.90;;;;;;5073177;28;20015;-69
2022/12/20 05:10:50;;;;;;;;;;;7.40;99.90;;;;;;5100472;28;20314;-70
2022/12/20 05:13:15;;;;;;;;;;;7.40;99.90;;;;;;5089575;28;19920;-70
2022/12/20 05:15:41;;;;;;;;;;;7.40;99.90;;;;;;5089204;28;19912;-70
2022/12/20 05:18:09;;;;;;;;;;;7.40;99.90;;;;;;5087849;28;20277;-69
2022/12/20 05:20:34;;;;;;;;;;;7.40;99.90;;;;;;5088848;28;19991;-69
2022/12/20 05:28:32;;;;;;;;;;;7.40;99.90;;;;;;5089089;28;20061;-70
2022/12/20 05:30:58;;;;;;;;;;;7.40;99.90;;;;;;5089175;28;19995;-70
2022/12/20 05:33:24;;;;;;;;;;;7.40;99.90;;;;;;5088980;28;19916;-70
2022/12/20 05:35:49;;;;;;;;;;;7.40;99.90;;;;;;5088953;28;19919;-69
2022/12/20 05:38:15;;;;;;;;;;;7.40;99.90;;;;;;5070982;28;19912;-69
2022/12/20 05:40:40;;;;;;;;;;;7.40;99.90;;;;;;5103566;28;19915;-70
2022/12/20 05:43:06;;;;;;;;;;;7.40;99.90;;;;;;5089039;28;19965;-69
2022/12/20 05:45:32;;;;;;;;;;;7.40;99.90;;;;;;5088686;28;20377;-69
2022/12/20 05:47:58;;;;;;;;;;;7.40;99.90;;;;;;5088909;28;19916;-69
2022/12/20 05:50:23;;;;;;;;;;;7.40;99.90;;;;;;5087537;28;19919;-69
2022/12/20 05:52:49;;;;;;;;;;;7.40;99.90;;;;;;5088683;28;19959;-69
2022/12/20 05:55:14;;;;;;;;;;;7.40;99.90;;;;;;5088717;28;19944;-70
2022/12/20 05:57:40;;;;;;;;;;;7.40;99.90;;;;;;5089022;28;20442;-69
2022/12/20 06:00:06;;;;;;;;;;;7.40;99.90;;;;;;5088339;28;19958;-70
2022/12/20 06:02:31;;;;;;;;;;;7.40;99.90;;;;;;5070287;28;19912;-70
2022/12/20 06:04:57;;;;;;;;;;;7.40;99.90;;;;;;5088515;28;19912;-70
2022/12/20 06:07:23;;;;;;;;;;;7.40;99.90;;;;;;5088403;28;19923;-70
2022/12/20 06:09:49;;;;;;;;;;;7.30;99.90;;;;;;5089634;28;19916;-70
2022/12/20 06:12:14;;;;;;;;;;;7.40;99.90;;;;;;5093224;28;19912;-70
2022/12/20 06:14:40;;;;;;;;;;;7.40;99.90;;;;;;5088022;28;19927;-69
2022/12/20 06:17:05;;;;;;;;;;;7.30;99.90;;;;;;5088383;28;19957;-70
2022/12/20 06:19:31;;;;;;;;;;;7.30;99.90;;;;;;5088037;28;19908;-69
2022/12/20 06:21:56;;;;;;;;;;;7.40;99.90;;;;;;5088241;28;19913;-69
2022/12/20 06:24:24;;;;;;;;;;;7.30;99.90;;;;;;5088046;28;19947;-70
2022/12/20 06:26:52;;;;;;;;;;;7.30;99.90;;;;;;5092509;28;19915;-69
2022/12/20 06:29:19;;;;;;;;;;;7.40;99.90;;;;;;5089311;28;19965;-69
2022/12/20 06:31:45;;;;;;;;;;;7.40;99.90;;;;;;5087958;28;19916;-69
2022/12/20 06:34:11;;;;;;;;;;;7.40;99.90;;;;;;5087585;28;19912;-69
2022/12/20 06:36:37;;;;;;;;;;;7.40;99.90;;;;;;5096530;28;19969;-70
2022/12/20 06:39:02;;;;;;;;;;;7.40;99.90;;;;;;5108059;28;19911;-70
2022/12/20 06:41:28;;;;;;;;;;;7.40;99.90;;;;;;5098836;28;19916;-70
2022/12/20 06:43:53;;;;;;;;;;;7.30;99.90;;;;;;5087763;28;19977;-69
2022/12/20 06:46:18;;;;;;;;;;;7.40;99.90;;;;;;5087818;28;19939;-70
2022/12/20 06:48:44;;;;;;;;;;;7.40;99.90;;;;;;5087816;28;19919;-69
2022/12/20 06:51:10;;;;;;;;;;;7.40;99.90;;;;;;5099341;28;19920;-69
2022/12/20 06:53:35;;;;;;;;;;;7.40;99.90;;;;;;5089323;28;19918;-69
2022/12/20 06:56:01;;;;;;;;;;;7.40;99.90;;;;;;5101000;28;19916;-70
2022/12/20 06:58:26;;;;;;;;;;;7.40;99.90;;;;;;5087070;28;19912;-69
2022/12/20 07:00:53;;;;;;;;;;;7.40;99.90;;;;;;5087016;28;19912;-69
2022/12/20 07:03:18;;;;;;;;;;;7.40;99.90;;;;;;5087367;28;20439;-69
2022/12/20 07:05:44;;;;;;;;;;;7.40;99.90;;;;;;5087396;28;20011;-70
2022/12/20 07:08:09;;;;;;;;;;;7.40;99.90;;;;;;5087125;28;19920;-69
2022/12/20 07:10:35;;;;;;;;;;;7.40;99.90;;;;;;5102747;28;20823;-69
2022/12/20 07:13:01;;;;;;;;;;;7.40;99.90;;;;;;5087313;28;19946;-69
2022/12/20 07:15:26;;;;;;;;;;;7.40;99.90;;;;;;5087560;28;19912;-69
2022/12/20 07:17:52;;;;;;;;;;;7.40;99.90;;;;;;5087577;28;19912;-69
2022/12/20 07:20:17;;;;;;;;;;;7.40;99.90;;;;;;5086935;28;19912;-69
2022/12/20 07:22:45;;;;;;;;;;;7.40;99.90;;;;;;5087251;28;19985;-70
2022/12/20 07:25:11;;;;;;;;;;;7.40;99.90;;;;;;5069958;28;20330;-69
2022/12/20 07:27:36;;;;;;;;;;;7.40;99.90;;;;;;5079715;28;19915;-70
2022/12/20 07:30:03;;;;;;;;;;;7.40;99.90;;;;;;5086765;28;19911;-70
2022/12/20 07:32:29;;;;;;;;;;;7.40;99.90;;;;;;5086687;28;19926;-69
2022/12/20 07:34:54;;;;;;;;;;;7.40;99.90;;;;;;5086959;28;20379;-69
2022/12/20 07:37:20;;;;;;;;;;;7.40;99.90;;;;;;5087069;28;19912;-69
2022/12/20 07:39:45;;;;;;;;;;;7.40;99.90;;;;;;5087047;28;19919;-69
2022/12/20 07:42:11;;;;;;;;;;;7.40;99.90;;;;;;5088395;28;19927;-69
2022/12/20 07:44:36;;;;;;;;;;;7.40;99.90;;;;;;5086802;28;19912;-69
2022/12/20 07:47:02;;;;;;;;;;;7.40;99.90;;;;;;5087379;28;20269;-69
2022/12/20 07:49:27;;;;;;;;;;;7.40;99.90;;;;;;5104221;28;19926;-69
2022/12/20 07:51:55;;;;;;;;;;;7.40;99.90;;;;;;5107449;28;19918;-69
2022/12/20 07:54:28;;;;;;;;;;;7.40;99.90;;;;;;5100779;28;20276;-69
2022/12/20 07:56:57;;;;;;;;;;;7.40;99.90;;;;;;5080002;28;19966;-69
2022/12/20 07:59:24;;;;;;;;;;;7.40;99.90;;;;;;5085989;28;19913;-69
2022/12/20 08:01:50;;;;;;;;;;;7.40;99.90;;;;;;5089629;28;19912;-69
2022/12/20 08:04:20;;;;;;;;;;;7.50;99.90;;;;;;5106984;28;19923;-69
2022/12/20 08:06:47;;;;;;;;;;;7.40;99.90;;;;;;5107265;28;19957;-69
2022/12/20 08:09:13;;;;;;;;;;;7.50;99.90;;;;;;5107183;28;19989;-69
2022/12/20 08:11:39;;;;;;;;;;;7.50;99.90;;;;;;5096492;28;19916;-69
2022/12/20 08:14:05;;;;;;;;;;;7.50;99.90;;;;;;5086002;28;19916;-70
2022/12/20 08:16:31;;;;;;;;;;;7.50;99.90;;;;;;5086204;28;19912;-70
2022/12/20 08:18:56;;;;;;;;;;;7.50;99.90;;;;;;5068931;28;20385;-70
2022/12/20 08:21:22;;;;;;;;;;;7.50;99.90;;;;;;5086319;28;19922;-69
2022/12/20 08:23:47;;;;;;;;;;;7.60;99.90;;;;;;5086648;28;19993;-69
2022/12/20 08:26:13;;;;;;;;;;;7.50;99.90;;;;;;5086528;28;19912;-69
2022/12/20 08:28:38;;;;;;;;;;;7.50;99.90;;;;;;5079339;28;19999;-69
2022/12/20 08:31:05;;;;;;;;;;;7.50;99.90;;;;;;5085992;28;20454;-69
2022/12/20 08:33:31;;;;;;;;;;;7.50;99.90;;;;;;5086551;28;19912;-69
2022/12/20 08:35:58;;;;;;;;;;;7.50;99.90;;;;;;5098858;28;20010;-69
2022/12/20 08:38:24;;;;;;;;;;;7.50;99.90;;;;;;5106780;28;19911;-69
2022/12/20 08:40:50;;;;;;;;;;;7.50;99.90;;;;;;5102903;28;19912;-69
2022/12/20 08:43:15;;;;;;;;;;;7.60;99.90;;;;;;5086285;28;19917;-69
2022/12/20 08:45:41;;;;;;;;;;;7.60;99.90;;;;;;5086264;28;19908;-69
2022/12/20 08:48:06;;;;;;;;;;;7.60;99.90;;;;;;5085855;28;19916;-70
2022/12/20 08:50:32;;;;;;;;;;;7.60;99.90;;;;;;5085981;28;19934;-69
2022/12/20 08:52:57;;;;;;;;;;;7.60;99.90;;;;;;5101852;28;19957;-69
2022/12/20 08:55:22;;;;;;;;;;;7.60;99.90;;;;;;5110365;28;19912;-69
2022/12/20 08:57:48;;;;;;;;;;;7.70;99.90;;;;;;5083547;28;19948;-69
2022/12/20 09:00:14;;;;;;;;;;;7.60;99.90;;;;;;5089117;28;20004;-69
2022/12/20 09:02:40;;;;;;;;;;;7.70;99.90;;;;;;5088776;28;19912;-69
2022/12/20 09:05:05;;;;;;;;;;;7.70;99.90;;;;;;5088970;28;19920;-69
2022/12/20 09:07:31;;;;;;;;;;;7.70;99.90;;;;;;5088769;28;20016;-69
2022/12/20 09:09:56;;;;;;;;;;;7.70;99.90;;;;;;5089816;28;19924;-69
2022/12/20 09:12:22;;;;;;;;;;;7.70;99.90;;;;;;5088317;28;19951;-69
2022/12/20 09:14:47;;;;;;;;;;;7.70;99.90;;;;;;5088145;28;19970;-69
2022/12/20 09:17:13;;;;;;;;;;;7.80;99.90;;;;;;5088296;28;19965;-69
2022/12/20 09:19:38;;;;;;;;;;;7.80;99.90;;;;;;5107562;28;19985;-69
2022/12/20 09:22:04;;;;;;;;;;;7.80;99.90;;;;;;5109080;28;19908;-69
2022/12/20 09:24:30;;;;;;;;;;;7.80;99.90;;;;;;5108939;28;19912;-69
2022/12/20 09:26:55;;;;;;;;;;;7.80;99.90;;;;;;5088830;28;20493;-69
2022/12/20 09:29:21;;;;;;;;;;;7.90;99.90;;;;;;5087534;28;19912;-69
2022/12/20 09:31:48;;;;;;;;;;;7.90;99.90;;;;;;5069561;28;19962;-69
2022/12/20 09:34:14;;;;;;;;;;;7.90;99.90;;;;;;5085036;28;20446;-69
2022/12/20 09:36:39;;;;;;;;;;;7.90;99.90;;;;;;5087688;28;19946;-69
2022/12/20 09:39:05;;;;;;;;;;;7.90;99.90;;;;;;5087857;28;19912;-69
2022/12/20 09:41:32;;;;;;;;;;;7.90;99.90;;;;;;5088666;28;19958;-69
2022/12/20 09:43:58;;;;;;;;;;;7.90;99.90;;;;;;5088864;28;19919;-69
2022/12/20 09:46:25;;;;;;;;;;;8.00;99.90;;;;;;5088818;28;19914;-69
2022/12/20 09:48:50;;;;;;;;;;;7.90;99.90;;;;;;5089847;28;19962;-69
2022/12/20 09:51:31;;;;;;;;;;;8.00;99.90;;;;;;5088554;28;19943;-69
2022/12/20 09:54:04;;;;;;;;;;;8.00;99.90;;;;;;5088861;28;20491;-69
2022/12/20 09:56:40;;;;;;;;;;;8.00;99.90;;;;;;5069875;28;19908;-69
2022/12/20 09:59:10;;;;;;;;;;;8.00;99.90;;;;;;5088968;28;19919;-69
2022/12/20 10:01:35;;;;;;;;;;;8.00;99.90;;;;;;5088030;28;19915;-69
2022/12/20 10:04:03;;;;;;;;;;;8.00;99.90;;;;;;5087880;28;19912;-69
2022/12/20 10:06:38;;;;;;;;;;;8.00;99.90;;;;;;5104615;28;19919;-70
2022/12/20 10:09:09;;;;;;;;;;;8.00;99.90;;;;;;5108027;28;20272;-69
2022/12/20 10:11:41;;;;;;;;;;;8.10;99.90;;;;;;5097424;28;19912;-69
2022/12/20 10:14:06;;;;;;;;;;;8.10;99.90;;;;;;5087036;28;19938;-69
2022/12/20 10:16:32;;;;;;;;;;;8.10;99.90;;;;;;5087579;28;19912;-69
2022/12/20 10:19:17;;;;;;;;;;;8.10;99.90;;;;;;5087262;28;19912;-69
2022/12/20 10:21:55;;;;;;;;;;;8.20;99.90;;;;;;5087415;28;19923;-69
2022/12/20 10:24:31;;;;;;;;;;;8.20;99.90;;;;;;5087089;28;19912;-69
2022/12/20 10:26:58;;;;;;;;;;;8.20;99.90;;;;;;5081785;28;19970;-69
2022/12/20 10:29:24;;;;;;;;;;;8.20;99.90;;;;;;5066719;28;20442;-69
2022/12/20 10:31:53;;;;;;;;;;;8.20;99.90;;;;;;5066728;28;19958;-69
2022/12/20 10:34:19;;;;;;;;;;;8.20;99.90;;;;;;5066709;28;19944;-69
2022/12/20 10:36:44;;;;;;;;;;;8.20;99.90;;;;;;5048777;28;19955;-69
2022/12/20 10:39:09;;;;;;;;;;;8.30;99.90;;;;;;5084603;28;19922;-70
2022/12/20 10:41:41;;;;;;;;;;;8.20;99.90;;;;;;5086694;28;20431;-69
2022/12/20 10:44:22;;;;;;;;;;;8.30;99.90;;;;;;5086519;28;19999;-69
2022/12/20 10:46:50;;;;;;;;;;;8.30;99.90;;;;;;5086910;28;19916;-69
2022/12/20 10:49:28;;;;;;;;;;;8.30;99.90;;;;;;5086529;28;19918;-69
2022/12/20 10:51:54;;;;;;;;;;;8.30;99.90;;;;;;5086942;28;19916;-69
2022/12/20 10:54:27;;;;;;;;;;;8.30;99.90;;;;;;5091489;28;19945;-69
2022/12/20 10:57:00;;;;;;;;;;;8.40;99.90;;;;;;5088154;28;19912;-70
2022/12/20 10:59:31;;;;;;;;;;;8.40;99.90;;;;;;5085826;28;19912;-69
2022/12/20 11:01:57;;;;;;;;;;;8.40;99.90;;;;;;5086648;28;20372;-69
2022/12/20 11:04:35;;;;;;;;;;;8.40;99.90;;;;;;5086656;28;19919;-69
2022/12/20 11:07:02;;;;;;;;;;;8.40;99.90;;;;;;5086768;28;19927;-70
2022/12/20 11:09:32;;;;;;;;;;;8.50;99.90;;;;;;5086328;28;19923;-69
2022/12/20 11:11:59;;;;;;;;;;;8.50;99.90;;;;;;5088830;28;20556;-69
2022/12/20 11:14:25;;;;;;;;;;;8.50;99.90;;;;;;5094139;28;19996;-69
2022/12/20 11:16:52;;;;;;;;;;;8.60;99.90;;;;;;5085619;28;19918;-69
2022/12/20 11:19:23;;;;;;;;;;;8.60;99.90;;;;;;5085998;28;19956;-69
2022/12/20 11:21:49;;;;;;;;;;;8.60;99.90;;;;;;5086326;28;19916;-69
2022/12/20 11:24:20;;;;;;;;;;;8.60;99.90;;;;;;5086237;28;19912;-69
2022/12/20 11:26:58;;;;;;;;;;;8.70;99.90;;;;;;5086340;28;19920;-69
2022/12/20 11:29:23;;;;;;;;;;;8.70;99.90;;;;;;5066431;28;19912;-69
2022/12/20 11:32:03;;;;;;;;;;;8.70;99.90;;;;;;5066354;28;20003;-69
2022/12/20 11:34:45;;;;;;;;;;;8.80;99.90;;;;;;5083348;28;19942;-69
2022/12/20 11:37:13;;;;;;;;;;;8.80;99.90;;;;;;5086165;28;20276;-69
2022/12/20 11:39:48;;;;;;;;;;;8.80;99.90;;;;;;5085977;28;19916;-70
2022/12/20 11:42:13;;;;;;;;;;;8.80;99.90;;;;;;5086162;28;19935;-69
2022/12/20 11:44:42;;;;;;;;;;;8.80;99.90;;;;;;5089700;28;19913;-69
2022/12/20 11:47:26;;;;;;;;;;;8.90;99.90;;;;;;5086324;28;19916;-69
2022/12/20 11:50:01;;;;;;;;;;;8.90;99.90;;;;;;5086343;28;20492;-69
2022/12/20 11:52:46;;;;;;;;;;;8.90;99.90;;;;;;5083201;28;19938;-69
2022/12/20 11:55:11;;;;;;;;;;;8.90;99.90;;;;;;5086287;28;19987;-69
2022/12/20 11:57:47;;;;;;;;;;;8.90;99.90;;;;;;5085814;28;20003;-69
2022/12/20 12:00:16;;;;;;;;;;;9.00;99.90;;;;;;5099741;28;19923;-69
2022/12/20 12:02:52;;;;;;;;;;;8.90;99.90;;;;;;5106816;28;20569;-69
2022/12/20 12:05:34;;;;;;;;;;;9.00;99.90;;;;;;5107321;28;20643;-69
2022/12/20 12:08:02;;;;;;;;;;;9.00;99.90;;;;;;5107052;28;19919;-69
2022/12/20 12:10:31;;;;;;;;;;;9.00;99.90;;;;;;5106825;28;20359;-69
2022/12/20 12:12:56;;;;;;;;;;;9.00;99.90;;;;;;5106941;28;20510;-69
2022/12/20 12:15:32;;;;;;;;;;;9.00;99.90;;;;;;5086499;28;19912;-69
2022/12/20 12:17:57;;;;;;;;;;;9.00;99.90;;;;;;5086653;28;19924;-69
2022/12/20 12:20:26;;;;;;;;;;;9.00;99.90;;;;;;5086180;28;20515;-69
2022/12/20 12:22:55;;;;;;;;;;;9.00;99.90;;;;;;5086786;28;19933;-69
2022/12/20 12:25:20;;;;;;;;;;;9.00;99.90;;;;;;5062887;28;20074;-69
2022/12/20 12:27:46;;;;;;;;;;;9.00;99.90;;;;;;5085631;28;20384;-69
2022/12/20 12:30:12;;;;;;;;;;;9.00;99.90;;;;;;5089438;28;20280;-69
2022/12/20 12:32:45;;;;;;;;;;;9.00;99.90;;;;;;5091437;28;19916;-69
2022/12/20 12:35:39;;;;;;;;;;;9.00;99.90;;;;;;5089973;28;19916;-69
2022/12/20 12:38:17;;;;;;;;;;;9.00;99.90;;;;;;5090507;28;19955;-69
2022/12/20 12:41:01;;;;;;;;;;;9.00;99.90;;;;;;5090116;28;19999;-69
2022/12/20 12:43:39;;;;;;;;;;;9.00;99.90;;;;;;5089930;28;19965;-69
2022/12/20 12:46:10;;;;;;;;;;;9.00;99.90;;;;;;5089774;28;19919;-69
2022/12/20 12:48:39;;;;;;;;;;;9.10;99.90;;;;;;5091090;28;20431;-69
2022/12/20 12:51:05;;;;;;;;;;;9.00;99.90;;;;;;5089435;28;19923;-69
2022/12/20 12:53:41;;;;;;;;;;;9.10;99.90;;;;;;5090055;28;19912;-70
2022/12/20 12:56:24;;;;;;;;;;;9.10;99.90;;;;;;5083983;28;19920;-69
2022/12/20 12:59:05;;;;;;;;;;;9.10;99.90;;;;;;5082749;28;19916;-69
2022/12/20 13:01:52;;;;;;;;;;;9.10;99.90;;;;;;5089288;28;19955;-69
2022/12/20 13:04:21;;;;;;;;;;;9.10;99.90;;;;;;5089435;28;19973;-69
2022/12/20 13:06:46;;;;;;;;;;;9.10;99.90;;;;;;5090828;28;19920;-69
2022/12/20 13:09:24;;;;;;;;;;;9.20;99.90;;;;;;5089438;28;20725;-69
2022/12/20 13:11:50;;;;;;;;;;;9.20;99.90;;;;;;5089600;28;19919;-69
2022/12/20 13:14:24;;;;;;;;;;;9.20;99.90;;;;;;5088245;28;20014;-69
2022/12/20 13:16:51;;;;;;;;;;;9.20;99.90;;;;;;5070556;28;20284;-69
2022/12/20 13:19:18;;;;;;;;;;;9.20;99.90;;;;;;5087396;28;19927;-69
2022/12/20 13:21:46;;;;;;;;;;;9.20;99.90;;;;;;5088006;28;19916;-69
2022/12/20 13:24:35;;;;;;;;;;;9.20;99.90;;;;;;5087856;28;20044;-69
2022/12/20 13:27:01;;;;;;;;;;;9.20;99.90;;;;;;5086866;28;19924;-69
2022/12/20 13:29:32;;;;;;;;;;;9.20;99.90;;;;;;5069641;28;19927;-69
2022/12/20 13:31:58;;;;;;;;;;;9.20;99.90;;;;;;5088664;28;19912;-69
2022/12/20 13:34:36;;;;;;;;;;;9.20;99.90;;;;;;5088181;28;19969;-69
2022/12/20 13:37:01;;;;;;;;;;;9.20;99.90;;;;;;5088929;28;20061;-69
2022/12/20 13:39:27;;;;;;;;;;;9.20;99.90;;;;;;5088922;28;20610;-69
2022/12/20 13:42:05;;;;;;;;;;;9.10;99.90;;;;;;5088661;28;19980;-69
2022/12/20 13:44:38;;;;;;;;;;;9.10;99.90;;;;;;5086924;28;19919;-69
2022/12/20 13:47:10;;;;;;;;;;;9.10;99.90;;;;;;5088149;28;20016;-69
2022/12/20 13:49:37;;;;;;;;;;;9.10;99.90;;;;;;5087400;28;19989;-69
2022/12/20 13:52:11;;;;;;;;;;;9.10;99.90;;;;;;5069223;28;19957;-69
2022/12/20 13:54:44;;;;;;;;;;;9.10;99.90;;;;;;5087529;28;19920;-69
2022/12/20 13:57:30;;;;;;;;;;;9.10;99.90;;;;;;5087275;28;19920;-69
2022/12/20 13:59:57;;;;;;;;;;;9.10;99.90;;;;;;5086040;28;20377;-69
2022/12/20 14:02:25;;;;;;;;;;;9.10;99.90;;;;;;5087333;28;19912;-70
2022/12/20 14:04:56;;;;;;;;;;;9.00;99.90;;;;;;5087304;28;19988;-69
2022/12/20 14:07:21;;;;;;;;;;;9.00;99.90;;;;;;5087193;28;19915;-70
2022/12/20 14:09:53;;;;;;;;;;;9.00;99.90;;;;;;5086998;28;19974;-70
2022/12/20 14:12:19;;;;;;;;;;;9.00;99.90;;;;;;5087234;28;19927;-69
2022/12/20 14:14:45;;;;;;;;;;;9.00;99.90;;;;;;5087279;28;20339;-70
2022/12/20 14:17:21;;;;;;;;;;;9.00;99.90;;;;;;5086911;28;20579;-69
2022/12/20 14:19:46;;;;;;;;;;;9.00;99.90;;;;;;5084336;28;19912;-69
2022/12/20 14:22:12;;;;;;;;;;;9.00;99.90;;;;;;5086842;28;20390;-70
2022/12/20 14:24:39;;;;;;;;;;;9.00;99.90;;;;;;5086821;28;19958;-70
2022/12/20 14:27:04;;;;;;;;;;;8.90;99.90;;;;;;5087346;28;19981;-70
2022/12/20 14:29:31;;;;;;;;;;;8.90;99.90;;;;;;5079005;28;19951;-69
2022/12/20 14:31:56;;;;;;;;;;;8.90;99.90;;;;;;5087307;28;19923;-69
2022/12/20 14:34:25;;;;;;;;;;;8.90;99.90;;;;;;5087073;28;19912;-69
2022/12/20 14:36:51;;;;;;;;;;;8.90;99.90;;;;;;5087495;28;19947;-70
2022/12/20 14:39:19;;;;;;;;;;;8.90;99.90;;;;;;5087105;28;19947;-69
2022/12/20 14:41:45;;;;;;;;;;;8.90;99.90;;;;;;5086903;28;19912;-69